sensor_id;sensor_type;location;lat;lon;timestamp;P1;durP1;ratioP1;P2;durP2;ratioP2
43184;SDS011;28803;52.308;19.096;2023-06-22T00:00:17;15.80;;;11.45;;
43184;SDS011;28803;52.308;19.096;2023-06-22T00:03:05;15.95;;;11.35;;
43184;SDS011;28803;52.308;19.096;2023-06-22T00:05:32;14.60;;;10.90;;
43184;SDS011;28803;52.308;19.096;2023-06-22T00:08:01;19.55;;;12.73;;
43184;SDS011;28803;52.308;19.096;2023-06-22T00:10:30;15.38;;;11.60;;
43184;SDS011;28803;52.308;19.096;2023-06-22T00:12:57;17.58;;;11.80;;
43184;SDS011;28803;52.308;19.096;2023-06-22T00:15:25;18.52;;;13.00;;
43184;SDS011;28803;52.308;19.096;2023-06-22T00:17:52;17.63;;;13.10;;
43184;SDS011;28803;52.308;19.096;2023-06-22T00:20:20;16.38;;;11.98;;
43184;SDS011;28803;52.308;19.096;2023-06-22T00:22:47;19.67;;;11.82;;
43184;SDS011;28803;52.308;19.096;2023-06-22T00:25:15;17.77;;;11.50;;
43184;SDS011;28803;52.308;19.096;2023-06-22T00:27:42;15.45;;;11.40;;
43184;SDS011;28803;52.308;19.096;2023-06-22T00:30:09;20.52;;;12.52;;
43184;SDS011;28803;52.308;19.096;2023-06-22T00:32:37;16.05;;;11.65;;
43184;SDS011;28803;52.308;19.096;2023-06-22T00:35:04;18.95;;;12.38;;
43184;SDS011;28803;52.308;19.096;2023-06-22T00:37:31;15.48;;;10.70;;
43184;SDS011;28803;52.308;19.096;2023-06-22T00:39:59;18.80;;;13.05;;
43184;SDS011;28803;52.308;19.096;2023-06-22T00:42:26;15.73;;;11.45;;
43184;SDS011;28803;52.308;19.096;2023-06-22T00:44:53;17.90;;;11.35;;
43184;SDS011;28803;52.308;19.096;2023-06-22T00:47:20;16.20;;;11.27;;
43184;SDS011;28803;52.308;19.096;2023-06-22T00:49:49;18.75;;;10.95;;
43184;SDS011;28803;52.308;19.096;2023-06-22T00:52:18;16.77;;;11.63;;
43184;SDS011;28803;52.308;19.096;2023-06-22T00:54:48;19.77;;;12.20;;
43184;SDS011;28803;52.308;19.096;2023-06-22T00:57:17;14.98;;;10.95;;
43184;SDS011;28803;52.308;19.096;2023-06-22T00:59:47;17.23;;;11.18;;
43184;SDS011;28803;52.308;19.096;2023-06-22T01:02:16;16.48;;;11.98;;
43184;SDS011;28803;52.308;19.096;2023-06-22T01:04:43;20.10;;;13.02;;
43184;SDS011;28803;52.308;19.096;2023-06-22T01:07:19;16.92;;;12.15;;
43184;SDS011;28803;52.308;19.096;2023-06-22T01:12:45;21.00;;;12.32;;
43184;SDS011;28803;52.308;19.096;2023-06-22T01:15:27;22.35;;;12.48;;
43184;SDS011;28803;52.308;19.096;2023-06-22T01:17:58;19.67;;;13.10;;
43184;SDS011;28803;52.308;19.096;2023-06-22T01:20:26;17.83;;;13.57;;
43184;SDS011;28803;52.308;19.096;2023-06-22T01:25:28;18.95;;;12.95;;
43184;SDS011;28803;52.308;19.096;2023-06-22T01:28:05;22.10;;;14.32;;
43184;SDS011;28803;52.308;19.096;2023-06-22T01:30:57;17.05;;;12.60;;
43184;SDS011;28803;52.308;19.096;2023-06-22T01:33:32;19.38;;;13.25;;
43184;SDS011;28803;52.308;19.096;2023-06-22T01:36:02;20.92;;;13.35;;
43184;SDS011;28803;52.308;19.096;2023-06-22T01:38:29;21.42;;;14.43;;
43184;SDS011;28803;52.308;19.096;2023-06-22T01:40:59;20.67;;;13.55;;
43184;SDS011;28803;52.308;19.096;2023-06-22T01:43:28;20.27;;;12.68;;
43184;SDS011;28803;52.308;19.096;2023-06-22T01:45:56;19.05;;;12.52;;
43184;SDS011;28803;52.308;19.096;2023-06-22T01:48:25;16.85;;;12.80;;
43184;SDS011;28803;52.308;19.096;2023-06-22T01:50:53;20.55;;;13.05;;
43184;SDS011;28803;52.308;19.096;2023-06-22T01:53:21;18.55;;;13.15;;
43184;SDS011;28803;52.308;19.096;2023-06-22T01:55:49;17.00;;;11.75;;
43184;SDS011;28803;52.308;19.096;2023-06-22T01:58:16;20.58;;;12.75;;
43184;SDS011;28803;52.308;19.096;2023-06-22T02:00:47;19.13;;;12.88;;
43184;SDS011;28803;52.308;19.096;2023-06-22T02:03:22;19.20;;;12.80;;
43184;SDS011;28803;52.308;19.096;2023-06-22T02:05:53;17.23;;;12.15;;
43184;SDS011;28803;52.308;19.096;2023-06-22T02:08:25;20.50;;;11.70;;
43184;SDS011;28803;52.308;19.096;2023-06-22T02:10:57;18.48;;;12.10;;
43184;SDS011;28803;52.308;19.096;2023-06-22T02:13:26;19.02;;;12.70;;
43184;SDS011;28803;52.308;19.096;2023-06-22T02:15:54;18.90;;;13.00;;
43184;SDS011;28803;52.308;19.096;2023-06-22T02:18:21;17.33;;;12.10;;
43184;SDS011;28803;52.308;19.096;2023-06-22T02:20:48;21.52;;;13.88;;
43184;SDS011;28803;52.308;19.096;2023-06-22T02:23:15;16.73;;;12.02;;
43184;SDS011;28803;52.308;19.096;2023-06-22T02:25:43;21.52;;;13.45;;
43184;SDS011;28803;52.308;19.096;2023-06-22T02:28:11;17.20;;;11.95;;
43184;SDS011;28803;52.308;19.096;2023-06-22T02:30:38;21.35;;;12.30;;
43184;SDS011;28803;52.308;19.096;2023-06-22T02:33:05;21.95;;;13.57;;
43184;SDS011;28803;52.308;19.096;2023-06-22T02:35:32;20.30;;;12.63;;
43184;SDS011;28803;52.308;19.096;2023-06-22T02:38:02;20.95;;;13.35;;
43184;SDS011;28803;52.308;19.096;2023-06-22T02:40:31;18.70;;;12.77;;
43184;SDS011;28803;52.308;19.096;2023-06-22T02:42:58;19.80;;;12.07;;
43184;SDS011;28803;52.308;19.096;2023-06-22T02:45:29;20.38;;;13.00;;
43184;SDS011;28803;52.308;19.096;2023-06-22T02:47:57;17.95;;;12.52;;
43184;SDS011;28803;52.308;19.096;2023-06-22T02:50:25;21.00;;;13.52;;
43184;SDS011;28803;52.308;19.096;2023-06-22T02:52:52;18.40;;;12.40;;
43184;SDS011;28803;52.308;19.096;2023-06-22T02:55:20;19.65;;;12.35;;
43184;SDS011;28803;52.308;19.096;2023-06-22T02:57:47;19.58;;;13.50;;
43184;SDS011;28803;52.308;19.096;2023-06-22T03:00:19;19.10;;;12.02;;
43184;SDS011;28803;52.308;19.096;2023-06-22T03:02:48;18.35;;;12.05;;
43184;SDS011;28803;52.308;19.096;2023-06-22T03:05:16;20.55;;;11.88;;
43184;SDS011;28803;52.308;19.096;2023-06-22T03:07:45;17.75;;;12.23;;
43184;SDS011;28803;52.308;19.096;2023-06-22T03:10:13;17.45;;;11.43;;
43184;SDS011;28803;52.308;19.096;2023-06-22T03:12:41;20.08;;;12.85;;
43184;SDS011;28803;52.308;19.096;2023-06-22T03:15:10;20.27;;;12.45;;
43184;SDS011;28803;52.308;19.096;2023-06-22T03:17:38;16.00;;;12.05;;
43184;SDS011;28803;52.308;19.096;2023-06-22T03:20:07;19.08;;;12.02;;
43184;SDS011;28803;52.308;19.096;2023-06-22T03:22:41;16.38;;;11.73;;
43184;SDS011;28803;52.308;19.096;2023-06-22T03:25:09;20.93;;;13.03;;
43184;SDS011;28803;52.308;19.096;2023-06-22T03:27:37;18.23;;;11.95;;
43184;SDS011;28803;52.308;19.096;2023-06-22T03:30:05;23.80;;;13.18;;
43184;SDS011;28803;52.308;19.096;2023-06-22T03:32:33;16.60;;;12.25;;
43184;SDS011;28803;52.308;19.096;2023-06-22T03:35:01;16.25;;;11.52;;
43184;SDS011;28803;52.308;19.096;2023-06-22T03:37:28;18.67;;;13.68;;
43184;SDS011;28803;52.308;19.096;2023-06-22T03:39:56;18.17;;;12.07;;
43184;SDS011;28803;52.308;19.096;2023-06-22T03:42:23;17.23;;;12.15;;
43184;SDS011;28803;52.308;19.096;2023-06-22T03:44:51;14.88;;;10.25;;
43184;SDS011;28803;52.308;19.096;2023-06-22T03:47:18;19.38;;;12.48;;
43184;SDS011;28803;52.308;19.096;2023-06-22T03:49:45;14.95;;;10.93;;
43184;SDS011;28803;52.308;19.096;2023-06-22T03:52:13;13.93;;;10.43;;
43184;SDS011;28803;52.308;19.096;2023-06-22T03:54:40;17.13;;;11.20;;
43184;SDS011;28803;52.308;19.096;2023-06-22T03:57:07;17.80;;;11.57;;
43184;SDS011;28803;52.308;19.096;2023-06-22T03:59:35;21.20;;;11.90;;
43184;SDS011;28803;52.308;19.096;2023-06-22T04:02:03;15.63;;;10.70;;
43184;SDS011;28803;52.308;19.096;2023-06-22T04:04:31;16.50;;;11.95;;
43184;SDS011;28803;52.308;19.096;2023-06-22T04:06:59;14.23;;;10.75;;
43184;SDS011;28803;52.308;19.096;2023-06-22T04:09:27;16.33;;;10.25;;
43184;SDS011;28803;52.308;19.096;2023-06-22T04:11:54;15.75;;;10.65;;
43184;SDS011;28803;52.308;19.096;2023-06-22T04:14:21;14.13;;;10.38;;
43184;SDS011;28803;52.308;19.096;2023-06-22T04:16:49;15.02;;;9.80;;
43184;SDS011;28803;52.308;19.096;2023-06-22T04:19:16;16.45;;;10.88;;
43184;SDS011;28803;52.308;19.096;2023-06-22T04:21:44;16.55;;;10.15;;
43184;SDS011;28803;52.308;19.096;2023-06-22T04:24:12;14.15;;;9.95;;
43184;SDS011;28803;52.308;19.096;2023-06-22T04:26:39;14.40;;;10.65;;
43184;SDS011;28803;52.308;19.096;2023-06-22T04:29:09;12.27;;;9.13;;
43184;SDS011;28803;52.308;19.096;2023-06-22T04:31:36;16.95;;;10.45;;
43184;SDS011;28803;52.308;19.096;2023-06-22T04:34:04;20.13;;;10.80;;
43184;SDS011;28803;52.308;19.096;2023-06-22T04:36:36;16.52;;;10.23;;
43184;SDS011;28803;52.308;19.096;2023-06-22T04:39:08;14.85;;;9.90;;
43184;SDS011;28803;52.308;19.096;2023-06-22T04:41:39;12.07;;;9.73;;
43184;SDS011;28803;52.308;19.096;2023-06-22T04:44:11;13.88;;;8.38;;
43184;SDS011;28803;52.308;19.096;2023-06-22T04:46:39;12.57;;;9.30;;
43184;SDS011;28803;52.308;19.096;2023-06-22T04:49:07;15.23;;;10.55;;
43184;SDS011;28803;52.308;19.096;2023-06-22T04:51:39;13.32;;;9.32;;
43184;SDS011;28803;52.308;19.096;2023-06-22T04:54:09;10.52;;;7.53;;
43184;SDS011;28803;52.308;19.096;2023-06-22T04:56:36;10.80;;;6.97;;
43184;SDS011;28803;52.308;19.096;2023-06-22T04:59:04;12.68;;;8.18;;
43184;SDS011;28803;52.308;19.096;2023-06-22T05:01:32;13.05;;;8.05;;
43184;SDS011;28803;52.308;19.096;2023-06-22T05:03:59;9.80;;;7.15;;
43184;SDS011;28803;52.308;19.096;2023-06-22T05:06:28;8.60;;;6.38;;
43184;SDS011;28803;52.308;19.096;2023-06-22T05:08:56;10.10;;;6.53;;
43184;SDS011;28803;52.308;19.096;2023-06-22T05:11:26;10.77;;;6.35;;
43184;SDS011;28803;52.308;19.096;2023-06-22T05:13:54;11.30;;;7.70;;
43184;SDS011;28803;52.308;19.096;2023-06-22T05:16:22;10.43;;;6.15;;
43184;SDS011;28803;52.308;19.096;2023-06-22T05:18:51;10.38;;;5.82;;
43184;SDS011;28803;52.308;19.096;2023-06-22T05:21:24;7.40;;;4.53;;
43184;SDS011;28803;52.308;19.096;2023-06-22T05:23:53;8.07;;;4.88;;
43184;SDS011;28803;52.308;19.096;2023-06-22T05:26:21;7.45;;;4.47;;
43184;SDS011;28803;52.308;19.096;2023-06-22T05:28:49;5.97;;;4.25;;
43184;SDS011;28803;52.308;19.096;2023-06-22T05:31:17;6.82;;;5.25;;
43184;SDS011;28803;52.308;19.096;2023-06-22T05:33:47;8.45;;;4.72;;
43184;SDS011;28803;52.308;19.096;2023-06-22T05:36:15;8.23;;;4.88;;
43184;SDS011;28803;52.308;19.096;2023-06-22T05:38:43;6.35;;;4.38;;
43184;SDS011;28803;52.308;19.096;2023-06-22T05:41:10;9.77;;;4.13;;
43184;SDS011;28803;52.308;19.096;2023-06-22T05:43:38;7.53;;;4.55;;
43184;SDS011;28803;52.308;19.096;2023-06-22T05:46:05;9.55;;;4.85;;
43184;SDS011;28803;52.308;19.096;2023-06-22T05:48:32;7.97;;;4.75;;
43184;SDS011;28803;52.308;19.096;2023-06-22T05:51:00;7.75;;;4.97;;
43184;SDS011;28803;52.308;19.096;2023-06-22T05:53:27;8.63;;;4.80;;
43184;SDS011;28803;52.308;19.096;2023-06-22T05:55:54;7.57;;;4.50;;
43184;SDS011;28803;52.308;19.096;2023-06-22T05:58:22;9.85;;;5.20;;
43184;SDS011;28803;52.308;19.096;2023-06-22T06:00:49;6.40;;;4.60;;
43184;SDS011;28803;52.308;19.096;2023-06-22T06:03:17;7.30;;;4.53;;
43184;SDS011;28803;52.308;19.096;2023-06-22T06:05:45;9.93;;;5.13;;
43184;SDS011;28803;52.308;19.096;2023-06-22T06:08:12;7.55;;;4.22;;
43184;SDS011;28803;52.308;19.096;2023-06-22T06:10:40;6.97;;;4.30;;
43184;SDS011;28803;52.308;19.096;2023-06-22T06:13:07;6.43;;;4.40;;
43184;SDS011;28803;52.308;19.096;2023-06-22T06:15:34;7.60;;;4.65;;
43184;SDS011;28803;52.308;19.096;2023-06-22T06:18:02;6.13;;;3.80;;
43184;SDS011;28803;52.308;19.096;2023-06-22T06:20:32;5.43;;;3.95;;
43184;SDS011;28803;52.308;19.096;2023-06-22T06:23:00;6.70;;;3.58;;
43184;SDS011;28803;52.308;19.096;2023-06-22T06:25:28;6.70;;;4.75;;
43184;SDS011;28803;52.308;19.096;2023-06-22T06:27:55;8.57;;;4.72;;
43184;SDS011;28803;52.308;19.096;2023-06-22T06:30:22;6.68;;;4.43;;
43184;SDS011;28803;52.308;19.096;2023-06-22T06:32:50;6.00;;;3.78;;
43184;SDS011;28803;52.308;19.096;2023-06-22T06:35:17;6.85;;;4.05;;
43184;SDS011;28803;52.308;19.096;2023-06-22T06:37:46;6.28;;;4.18;;
43184;SDS011;28803;52.308;19.096;2023-06-22T06:40:14;9.63;;;4.47;;
43184;SDS011;28803;52.308;19.096;2023-06-22T06:42:43;8.70;;;3.97;;
43184;SDS011;28803;52.308;19.096;2023-06-22T06:45:17;6.55;;;3.97;;
43184;SDS011;28803;52.308;19.096;2023-06-22T06:47:47;7.30;;;3.45;;
43184;SDS011;28803;52.308;19.096;2023-06-22T06:50:14;7.38;;;3.30;;
43184;SDS011;28803;52.308;19.096;2023-06-22T06:52:42;6.43;;;3.45;;
43184;SDS011;28803;52.308;19.096;2023-06-22T06:55:09;6.20;;;3.50;;
43184;SDS011;28803;52.308;19.096;2023-06-22T06:57:39;9.32;;;3.30;;
43184;SDS011;28803;52.308;19.096;2023-06-22T07:00:09;6.45;;;3.15;;
43184;SDS011;28803;52.308;19.096;2023-06-22T07:02:52;4.90;;;3.50;;
43184;SDS011;28803;52.308;19.096;2023-06-22T07:05:19;4.40;;;3.10;;
43184;SDS011;28803;52.308;19.096;2023-06-22T07:07:46;6.03;;;3.20;;
43184;SDS011;28803;52.308;19.096;2023-06-22T07:10:14;6.40;;;3.13;;
43184;SDS011;28803;52.308;19.096;2023-06-22T07:12:42;6.53;;;3.20;;
43184;SDS011;28803;52.308;19.096;2023-06-22T07:15:09;5.18;;;2.42;;
43184;SDS011;28803;52.308;19.096;2023-06-22T07:17:39;6.13;;;2.95;;
43184;SDS011;28803;52.308;19.096;2023-06-22T07:20:08;4.70;;;2.70;;
43184;SDS011;28803;52.308;19.096;2023-06-22T07:22:40;3.97;;;2.20;;
43184;SDS011;28803;52.308;19.096;2023-06-22T07:25:09;4.22;;;2.28;;
43184;SDS011;28803;52.308;19.096;2023-06-22T07:27:37;6.00;;;2.67;;
43184;SDS011;28803;52.308;19.096;2023-06-22T07:30:06;12.35;;;3.22;;
43184;SDS011;28803;52.308;19.096;2023-06-22T07:32:35;9.05;;;2.95;;
43184;SDS011;28803;52.308;19.096;2023-06-22T07:35:02;4.85;;;2.58;;
43184;SDS011;28803;52.308;19.096;2023-06-22T07:37:31;4.50;;;2.30;;
43184;SDS011;28803;52.308;19.096;2023-06-22T07:40:00;4.35;;;1.92;;
43184;SDS011;28803;52.308;19.096;2023-06-22T07:42:29;3.20;;;1.95;;
43184;SDS011;28803;52.308;19.096;2023-06-22T07:44:59;6.22;;;2.40;;
43184;SDS011;28803;52.308;19.096;2023-06-22T07:47:27;2.80;;;2.20;;
43184;SDS011;28803;52.308;19.096;2023-06-22T07:49:55;3.50;;;2.28;;
43184;SDS011;28803;52.308;19.096;2023-06-22T07:52:25;4.60;;;2.42;;
43184;SDS011;28803;52.308;19.096;2023-06-22T07:54:52;4.28;;;2.13;;
43184;SDS011;28803;52.308;19.096;2023-06-22T07:57:22;4.65;;;2.17;;
43184;SDS011;28803;52.308;19.096;2023-06-22T07:59:49;5.65;;;2.20;;
43184;SDS011;28803;52.308;19.096;2023-06-22T08:02:16;5.85;;;1.98;;
43184;SDS011;28803;52.308;19.096;2023-06-22T08:04:44;2.88;;;2.17;;
43184;SDS011;28803;52.308;19.096;2023-06-22T08:07:12;4.70;;;2.17;;
43184;SDS011;28803;52.308;19.096;2023-06-22T08:09:39;3.47;;;2.00;;
43184;SDS011;28803;52.308;19.096;2023-06-22T08:12:14;4.75;;;2.05;;
43184;SDS011;28803;52.308;19.096;2023-06-22T08:14:42;2.80;;;2.17;;
43184;SDS011;28803;52.308;19.096;2023-06-22T08:17:11;2.42;;;1.58;;
43184;SDS011;28803;52.308;19.096;2023-06-22T08:19:39;4.65;;;2.03;;
43184;SDS011;28803;52.308;19.096;2023-06-22T08:22:06;2.47;;;1.48;;
43184;SDS011;28803;52.308;19.096;2023-06-22T08:24:34;8.77;;;2.03;;
43184;SDS011;28803;52.308;19.096;2023-06-22T08:27:01;3.70;;;1.52;;
43184;SDS011;28803;52.308;19.096;2023-06-22T08:29:28;3.78;;;1.83;;
43184;SDS011;28803;52.308;19.096;2023-06-22T08:31:56;5.45;;;1.98;;
43184;SDS011;28803;52.308;19.096;2023-06-22T08:34:23;2.67;;;1.98;;
43184;SDS011;28803;52.308;19.096;2023-06-22T08:36:54;3.15;;;2.05;;
43184;SDS011;28803;52.308;19.096;2023-06-22T08:39:21;2.47;;;1.90;;
43184;SDS011;28803;52.308;19.096;2023-06-22T08:41:49;2.80;;;1.70;;
43184;SDS011;28803;52.308;19.096;2023-06-22T08:44:18;5.50;;;1.80;;
43184;SDS011;28803;52.308;19.096;2023-06-22T08:46:45;3.70;;;1.88;;
43184;SDS011;28803;52.308;19.096;2023-06-22T08:49:15;3.50;;;1.70;;
43184;SDS011;28803;52.308;19.096;2023-06-22T08:51:43;3.25;;;2.20;;
43184;SDS011;28803;52.308;19.096;2023-06-22T08:54:12;4.82;;;1.92;;
43184;SDS011;28803;52.308;19.096;2023-06-22T08:56:39;2.72;;;1.63;;
43184;SDS011;28803;52.308;19.096;2023-06-22T08:59:07;6.40;;;2.05;;
43184;SDS011;28803;52.308;19.096;2023-06-22T09:01:34;3.10;;;1.90;;
43184;SDS011;28803;52.308;19.096;2023-06-22T09:04:01;2.88;;;1.70;;
43184;SDS011;28803;52.308;19.096;2023-06-22T09:06:31;3.65;;;1.77;;
43184;SDS011;28803;52.308;19.096;2023-06-22T09:08:58;5.18;;;1.70;;
43184;SDS011;28803;52.308;19.096;2023-06-22T09:11:26;2.35;;;1.42;;
43184;SDS011;28803;52.308;19.096;2023-06-22T09:13:53;4.85;;;1.40;;
43184;SDS011;28803;52.308;19.096;2023-06-22T09:16:21;3.33;;;1.58;;
43184;SDS011;28803;52.308;19.096;2023-06-22T09:18:48;2.67;;;1.73;;
43184;SDS011;28803;52.308;19.096;2023-06-22T09:21:16;4.05;;;1.40;;
43184;SDS011;28803;52.308;19.096;2023-06-22T09:23:43;2.72;;;1.67;;
43184;SDS011;28803;52.308;19.096;2023-06-22T09:26:13;6.22;;;1.67;;
43184;SDS011;28803;52.308;19.096;2023-06-22T09:28:40;3.60;;;1.48;;
43184;SDS011;28803;52.308;19.096;2023-06-22T09:31:08;2.28;;;1.35;;
43184;SDS011;28803;52.308;19.096;2023-06-22T09:33:35;3.20;;;1.63;;
43184;SDS011;28803;52.308;19.096;2023-06-22T09:36:05;4.50;;;1.65;;
43184;SDS011;28803;52.308;19.096;2023-06-22T09:38:37;2.25;;;1.33;;
43184;SDS011;28803;52.308;19.096;2023-06-22T09:41:05;2.42;;;1.40;;
43184;SDS011;28803;52.308;19.096;2023-06-22T09:43:32;1.98;;;1.00;;
43184;SDS011;28803;52.308;19.096;2023-06-22T09:46:02;2.13;;;1.30;;
43184;SDS011;28803;52.308;19.096;2023-06-22T09:48:29;2.40;;;1.10;;
43184;SDS011;28803;52.308;19.096;2023-06-22T09:50:57;2.28;;;1.45;;
43184;SDS011;28803;52.308;19.096;2023-06-22T09:53:24;4.82;;;1.13;;
43184;SDS011;28803;52.308;19.096;2023-06-22T09:55:51;2.70;;;2.00;;
43184;SDS011;28803;52.308;19.096;2023-06-22T09:58:18;3.28;;;1.75;;
43184;SDS011;28803;52.308;19.096;2023-06-22T10:00:46;3.30;;;1.88;;
43184;SDS011;28803;52.308;19.096;2023-06-22T10:03:13;3.72;;;1.90;;
43184;SDS011;28803;52.308;19.096;2023-06-22T10:05:41;3.72;;;2.17;;
43184;SDS011;28803;52.308;19.096;2023-06-22T10:08:09;5.75;;;2.50;;
43184;SDS011;28803;52.308;19.096;2023-06-22T10:10:37;5.43;;;2.08;;
43184;SDS011;28803;52.308;19.096;2023-06-22T10:13:08;3.38;;;1.83;;
43184;SDS011;28803;52.308;19.096;2023-06-22T10:15:37;3.90;;;2.00;;
43184;SDS011;28803;52.308;19.096;2023-06-22T10:18:04;3.78;;;1.58;;
43184;SDS011;28803;52.308;19.096;2023-06-22T10:20:32;4.07;;;1.75;;
43184;SDS011;28803;52.308;19.096;2023-06-22T10:22:59;2.40;;;1.40;;
43184;SDS011;28803;52.308;19.096;2023-06-22T10:25:26;3.47;;;1.83;;
43184;SDS011;28803;52.308;19.096;2023-06-22T10:27:54;1.85;;;1.40;;
43184;SDS011;28803;52.308;19.096;2023-06-22T10:30:22;2.95;;;1.20;;
43184;SDS011;28803;52.308;19.096;2023-06-22T10:32:49;2.15;;;1.10;;
43184;SDS011;28803;52.308;19.096;2023-06-22T10:35:17;2.28;;;1.00;;
43184;SDS011;28803;52.308;19.096;2023-06-22T10:37:44;2.08;;;1.25;;
43184;SDS011;28803;52.308;19.096;2023-06-22T10:40:13;5.07;;;1.85;;
43184;SDS011;28803;52.308;19.096;2023-06-22T10:42:42;2.10;;;1.30;;
43184;SDS011;28803;52.308;19.096;2023-06-22T10:45:09;2.83;;;1.08;;
43184;SDS011;28803;52.308;19.096;2023-06-22T10:47:37;3.15;;;1.52;;
43184;SDS011;28803;52.308;19.096;2023-06-22T10:50:05;2.05;;;1.50;;
43184;SDS011;28803;52.308;19.096;2023-06-22T10:52:32;3.17;;;1.63;;
43184;SDS011;28803;52.308;19.096;2023-06-22T10:55:00;2.25;;;1.23;;
43184;SDS011;28803;52.308;19.096;2023-06-22T10:57:27;1.88;;;1.45;;
43184;SDS011;28803;52.308;19.096;2023-06-22T10:59:54;1.95;;;1.05;;
43184;SDS011;28803;52.308;19.096;2023-06-22T11:02:21;7.10;;;1.08;;
43184;SDS011;28803;52.308;19.096;2023-06-22T11:04:51;3.05;;;1.00;;
43184;SDS011;28803;52.308;19.096;2023-06-22T11:07:18;2.05;;;1.40;;
43184;SDS011;28803;52.308;19.096;2023-06-22T11:09:46;3.15;;;1.45;;
43184;SDS011;28803;52.308;19.096;2023-06-22T11:12:13;4.15;;;1.75;;
43184;SDS011;28803;52.308;19.096;2023-06-22T11:14:40;2.83;;;1.30;;
43184;SDS011;28803;52.308;19.096;2023-06-22T11:17:07;1.98;;;1.10;;
43184;SDS011;28803;52.308;19.096;2023-06-22T11:19:35;3.13;;;1.10;;
43184;SDS011;28803;52.308;19.096;2023-06-22T11:22:03;3.25;;;1.17;;
43184;SDS011;28803;52.308;19.096;2023-06-22T11:24:30;5.88;;;2.05;;
43184;SDS011;28803;52.308;19.096;2023-06-22T11:26:58;2.35;;;1.40;;
43184;SDS011;28803;52.308;19.096;2023-06-22T11:29:25;3.38;;;1.35;;
43184;SDS011;28803;52.308;19.096;2023-06-22T11:32:03;3.47;;;1.60;;
43184;SDS011;28803;52.308;19.096;2023-06-22T11:34:32;4.95;;;1.55;;
43184;SDS011;28803;52.308;19.096;2023-06-22T11:36:59;2.65;;;1.25;;
43184;SDS011;28803;52.308;19.096;2023-06-22T11:39:26;2.55;;;1.20;;
43184;SDS011;28803;52.308;19.096;2023-06-22T11:42:11;2.03;;;1.20;;
43184;SDS011;28803;52.308;19.096;2023-06-22T11:44:39;3.47;;;1.42;;
43184;SDS011;28803;52.308;19.096;2023-06-22T11:47:06;2.40;;;1.38;;
43184;SDS011;28803;52.308;19.096;2023-06-22T11:49:33;4.20;;;1.60;;
43184;SDS011;28803;52.308;19.096;2023-06-22T11:52:00;1.85;;;1.33;;
43184;SDS011;28803;52.308;19.096;2023-06-22T11:54:28;1.92;;;1.23;;
43184;SDS011;28803;52.308;19.096;2023-06-22T11:56:55;1.88;;;1.27;;
43184;SDS011;28803;52.308;19.096;2023-06-22T11:59:22;11.07;;;1.70;;
43184;SDS011;28803;52.308;19.096;2023-06-22T12:01:49;2.55;;;1.65;;
43184;SDS011;28803;52.308;19.096;2023-06-22T12:04:19;2.90;;;1.02;;
43184;SDS011;28803;52.308;19.096;2023-06-22T12:06:46;3.88;;;1.48;;
43184;SDS011;28803;52.308;19.096;2023-06-22T12:09:14;2.17;;;1.13;;
43184;SDS011;28803;52.308;19.096;2023-06-22T12:11:41;2.95;;;1.00;;
43184;SDS011;28803;52.308;19.096;2023-06-22T12:14:08;1.85;;;0.95;;
43184;SDS011;28803;52.308;19.096;2023-06-22T12:16:35;2.65;;;1.38;;
43184;SDS011;28803;52.308;19.096;2023-06-22T12:19:03;2.53;;;1.05;;
43184;SDS011;28803;52.308;19.096;2023-06-22T12:21:30;3.47;;;1.00;;
43184;SDS011;28803;52.308;19.096;2023-06-22T12:23:58;2.60;;;0.93;;
43184;SDS011;28803;52.308;19.096;2023-06-22T12:26:25;2.22;;;1.42;;
43184;SDS011;28803;52.308;19.096;2023-06-22T12:28:52;2.65;;;1.38;;
43184;SDS011;28803;52.308;19.096;2023-06-22T12:31:19;1.85;;;1.00;;
43184;SDS011;28803;52.308;19.096;2023-06-22T12:33:47;3.28;;;1.50;;
43184;SDS011;28803;52.308;19.096;2023-06-22T12:36:14;3.20;;;1.08;;
43184;SDS011;28803;52.308;19.096;2023-06-22T12:38:43;3.10;;;1.25;;
43184;SDS011;28803;52.308;19.096;2023-06-22T12:41:10;2.20;;;1.00;;
43184;SDS011;28803;52.308;19.096;2023-06-22T12:43:37;2.75;;;0.98;;
43184;SDS011;28803;52.308;19.096;2023-06-22T12:46:04;2.33;;;1.25;;
43184;SDS011;28803;52.308;19.096;2023-06-22T12:48:32;1.70;;;1.00;;
43184;SDS011;28803;52.308;19.096;2023-06-22T12:50:59;1.92;;;1.08;;
43184;SDS011;28803;52.308;19.096;2023-06-22T12:53:27;3.25;;;1.65;;
43184;SDS011;28803;52.308;19.096;2023-06-22T12:55:55;2.00;;;1.02;;
43184;SDS011;28803;52.308;19.096;2023-06-22T12:58:22;1.58;;;1.08;;
43184;SDS011;28803;52.308;19.096;2023-06-22T13:00:49;1.90;;;1.05;;
43184;SDS011;28803;52.308;19.096;2023-06-22T13:03:17;2.42;;;1.05;;
43184;SDS011;28803;52.308;19.096;2023-06-22T13:05:44;1.40;;;0.80;;
43184;SDS011;28803;52.308;19.096;2023-06-22T13:08:11;1.73;;;0.90;;
43184;SDS011;28803;52.308;19.096;2023-06-22T13:10:38;1.80;;;0.88;;
43184;SDS011;28803;52.308;19.096;2023-06-22T13:13:06;4.43;;;1.45;;
43184;SDS011;28803;52.308;19.096;2023-06-22T13:15:33;1.95;;;1.00;;
43184;SDS011;28803;52.308;19.096;2023-06-22T13:18:01;2.38;;;1.10;;
43184;SDS011;28803;52.308;19.096;2023-06-22T13:20:28;2.45;;;0.73;;
43184;SDS011;28803;52.308;19.096;2023-06-22T13:22:56;1.60;;;0.88;;
43184;SDS011;28803;52.308;19.096;2023-06-22T13:25:23;1.70;;;1.10;;
43184;SDS011;28803;52.308;19.096;2023-06-22T13:27:54;3.10;;;1.10;;
43184;SDS011;28803;52.308;19.096;2023-06-22T13:30:21;1.80;;;0.95;;
43184;SDS011;28803;52.308;19.096;2023-06-22T13:32:48;2.55;;;1.10;;
43184;SDS011;28803;52.308;19.096;2023-06-22T13:35:16;2.72;;;1.50;;
43184;SDS011;28803;52.308;19.096;2023-06-22T13:37:43;1.48;;;0.88;;
43184;SDS011;28803;52.308;19.096;2023-06-22T13:40:10;2.13;;;0.98;;
43184;SDS011;28803;52.308;19.096;2023-06-22T13:42:38;2.38;;;1.35;;
43184;SDS011;28803;52.308;19.096;2023-06-22T13:45:06;3.13;;;1.23;;
43184;SDS011;28803;52.308;19.096;2023-06-22T13:47:34;2.15;;;0.95;;
43184;SDS011;28803;52.308;19.096;2023-06-22T13:50:01;1.88;;;0.98;;
43184;SDS011;28803;52.308;19.096;2023-06-22T13:52:29;2.33;;;1.13;;
43184;SDS011;28803;52.308;19.096;2023-06-22T13:54:56;1.80;;;0.90;;
43184;SDS011;28803;52.308;19.096;2023-06-22T13:57:23;3.63;;;1.25;;
43184;SDS011;28803;52.308;19.096;2023-06-22T13:59:50;1.65;;;0.88;;
43184;SDS011;28803;52.308;19.096;2023-06-22T14:02:18;1.98;;;1.20;;
43184;SDS011;28803;52.308;19.096;2023-06-22T14:04:45;1.63;;;0.85;;
43184;SDS011;28803;52.308;19.096;2023-06-22T14:07:13;3.25;;;1.00;;
43184;SDS011;28803;52.308;19.096;2023-06-22T14:09:40;2.63;;;0.88;;
43184;SDS011;28803;52.308;19.096;2023-06-22T14:12:08;1.50;;;1.00;;
43184;SDS011;28803;52.308;19.096;2023-06-22T14:14:36;1.85;;;1.02;;
43184;SDS011;28803;52.308;19.096;2023-06-22T14:17:04;1.70;;;0.98;;
43184;SDS011;28803;52.308;19.096;2023-06-22T14:19:31;1.83;;;0.98;;
43184;SDS011;28803;52.308;19.096;2023-06-22T14:21:59;2.33;;;1.30;;
43184;SDS011;28803;52.308;19.096;2023-06-22T14:24:26;1.73;;;0.80;;
43184;SDS011;28803;52.308;19.096;2023-06-22T14:26:56;2.17;;;1.02;;
43184;SDS011;28803;52.308;19.096;2023-06-22T14:29:25;2.30;;;1.10;;
43184;SDS011;28803;52.308;19.096;2023-06-22T14:31:52;0.98;;;0.73;;
43184;SDS011;28803;52.308;19.096;2023-06-22T14:34:20;1.92;;;0.80;;
43184;SDS011;28803;52.308;19.096;2023-06-22T14:36:47;3.75;;;1.05;;